ID Time Temp Humidity Light PM2.5 PM10 Voltage Firmware Position Fcnt Gateways Distance RSSI LSNR Radiosettings
51 2019-08-24 20:15:42 25.125°C 60.3125% 3.38V v1 52.1991 / 5.41214 4333 tonzttn 0.005km -75 12.25 867.3Mhz, SF9BW125, 4/5CR
Meetjestad #4 (De Koperhorst) 3.668km -117 -5.75 867.3Mhz, SF9BW125, 4/5CR
51 2019-08-24 19:58:38 25.8125°C 58.625% 3.38V v1 52.1991 / 5.41214 4332 tonzttn 0.005km -81 12 868.3Mhz, SF9BW125, 4/5CR
Meetjestad #4 (De Koperhorst) 3.668km -119 -9.5 868.3Mhz, SF9BW125, 4/5CR
Meetjestad #6 (La Balise) 3.217km -119 -14.25 868.3Mhz, SF9BW125, 4/5CR
51 2019-08-24 19:41:35 26.375°C 54.75% 3.38V v1 52.1991 / 5.41214 4331 tonzttn 0.005km -72 11.5 867.1Mhz, SF9BW125, 4/5CR
eui-1dee1538af05a5a8 - -120 -13 867.1Mhz, SF9BW125, 4/5CR
51 2019-08-24 19:24:32 26.8125°C 49.6875% 3.38V v1 52.1991 / 5.41214 4330 tonzttn 0.005km -84 12.25 868.1Mhz, SF9BW125, 4/5CR
51 2019-08-24 19:07:28 27.3125°C 52.1875% 3.38V v1 52.1991 / 5.41214 4329 tonzttn 0.005km -82 11 867.9Mhz, SF9BW125, 4/5CR
Meetjestad #4 (De Koperhorst) 3.668km -118 -2.75 867.9Mhz, SF9BW125, 4/5CR
51 2019-08-24 18:50:25 27.5°C 51.9375% 3.38V v1 52.1991 / 5.41214 4328 tonzttn 0.005km -81 9.5 868.5Mhz, SF9BW125, 4/5CR
51 2019-08-24 18:33:29 27.5625°C 48.125% 3.38V v1 52.1991 / 5.41214 4327 tonzttn 0.005km -83 13.75 868.3Mhz, SF9BW125, 4/5CR
Meetjestad #4 (De Koperhorst) 3.668km -115 -13 868.3Mhz, SF9BW125, 4/5CR
51 2019-08-24 18:16:18 27.625°C 49.3125% 3.38V v1 52.1991 / 5.41214 4326 tonzttn 0.005km -87 12.25 868.1Mhz, SF9BW125, 4/5CR
Meetjestad #4 (De Koperhorst) 3.668km -118 -2.75 868.1Mhz, SF9BW125, 4/5CR
51 2019-08-24 17:59:15 27.75°C 49.8125% 3.38V v1 52.1991 / 5.41214 4325 tonzttn 0.005km -77 14.25 867.3Mhz, SF9BW125, 4/5CR
eui-1dee1538af05a5a8 - -118 -14.2 867.3Mhz, SF9BW125, 4/5CR
51 2019-08-24 17:42:11 27.8125°C 47.9375% 3.38V v1 52.1991 / 5.41214 4324 tonzttn 0.005km -77 8.75 868.5Mhz, SF9BW125, 4/5CR
51 2019-08-24 17:25:07 27.9375°C 43.9375% 3.38V v1 52.1991 / 5.41214 4323 tonzttn 0.005km -73 12 867.1Mhz, SF9BW125, 4/5CR
Meetjestad #4 (De Koperhorst) 3.668km -121 -6.5 867.1Mhz, SF9BW125, 4/5CR
51 2019-08-24 17:08:03 27.9375°C 46.6875% 3.38V v1 52.1991 / 5.41214 4322 tonzttn 0.005km -81 14.25 868.3Mhz, SF9BW125, 4/5CR
Meetjestad #6 (La Balise) 3.217km -118 -12.75 868.3Mhz, SF9BW125, 4/5CR
51 2019-08-24 16:51:00 27.9375°C 46.75% 3.38V v1 52.1991 / 5.41214 4321 tonzttn 0.005km -81 12 868.1Mhz, SF9BW125, 4/5CR
Meetjestad #4 (De Koperhorst) 3.668km -120 -7.75 868.1Mhz, SF9BW125, 4/5CR
51 2019-08-24 16:34:41 28°C 46.875% 3.38V v1 52.1991 / 5.41214 4320 tonzttn 0.005km -78 9.75 867.9Mhz, SF12BW125, 4/5CR
Meetjestad #4 (De Koperhorst) 3.668km -117 -3.5 867.9Mhz, SF12BW125, 4/5CR
Meetjestad #6 (La Balise) 3.217km -120 -11 867.9Mhz, SF12BW125, 4/5CR
Meetjestad #1 (De WAR) 4.699km -120 -15.5 867.9Mhz, SF12BW125, 4/5CR
eui-1dee1538af05a5a8 - -121 -17 867.9Mhz, SF12BW125, 4/5CR
51 2019-08-24 16:16:58 28.125°C 45.9375% 3.38V v1 52.1991 / 5.4122 4319 tonzttn 0.008km -78 9.5 868.5Mhz, SF9BW125, 4/5CR
51 2019-08-24 15:59:54 28.1875°C 47.125% 3.38V v1 52.1991 / 5.4122 4318 tonzttn 0.008km -78 12 867.7Mhz, SF9BW125, 4/5CR
Meetjestad #4 (De Koperhorst) 3.67km -118 -6.75 867.7Mhz, SF9BW125, 4/5CR
51 2019-08-24 15:42:50 28.25°C 45.875% 3.38V v1 52.1991 / 5.4122 4317 tonzttn 0.008km -97 10 868.3Mhz, SF9BW125, 4/5CR
51 2019-08-24 15:25:46 28.375°C 47.25% 3.38V v1 52.1991 / 5.4122 4316 tonzttn 0.008km -74 7.75 867.5Mhz, SF9BW125, 4/5CR
Meetjestad #4 (De Koperhorst) 3.67km -117 -7 867.5Mhz, SF9BW125, 4/5CR
51 2019-08-24 15:08:42 28.3125°C 45.1875% 3.38V v1 52.1991 / 5.4122 4315 tonzttn 0.008km -93 11.5 868.1Mhz, SF9BW125, 4/5CR
Meetjestad #4 (De Koperhorst) 3.67km -120 -11.25 868.1Mhz, SF9BW125, 4/5CR
51 2019-08-24 14:51:45 28.375°C 47.0625% 3.38V v1 52.1991 / 5.4122 4314 tonzttn 0.008km -73 12.25 867.3Mhz, SF9BW125, 4/5CR
Meetjestad #4 (De Koperhorst) 3.67km -117 -7.25 867.3Mhz, SF9BW125, 4/5CR
51 2019-08-24 14:34:35 28.375°C 47.6875% 3.38V v1 52.1991 / 5.4122 4313 tonzttn 0.008km -77 13 867.1Mhz, SF9BW125, 4/5CR
Meetjestad #4 (De Koperhorst) 3.67km -120 -9.5 867.1Mhz, SF9BW125, 4/5CR
51 2019-08-24 14:17:31 28.0625°C 49.5625% 3.38V v1 52.1991 / 5.4122 4312 tonzttn 0.008km -87 12.75 868.1Mhz, SF9BW125, 4/5CR
51 2019-08-24 14:00:28 27.9375°C 48.875% 3.38V v1 52.1991 / 5.4122 4311 tonzttn 0.008km -85 12.5 867.9Mhz, SF9BW125, 4/5CR
51 2019-08-24 13:43:24 27.75°C 51.6875% 3.38V v1 52.1991 / 5.4122 4310 tonzttn 0.008km -79 9.5 868.5Mhz, SF9BW125, 4/5CR
Meetjestad #4 (De Koperhorst) 3.67km -115 -7.75 868.5Mhz, SF9BW125, 4/5CR
51 2019-08-24 13:26:20 27.5°C 53% 3.38V v1 52.1991 / 5.4122 4309 tonzttn 0.008km -85 12.25 867.7Mhz, SF9BW125, 4/5CR
Meetjestad #4 (De Koperhorst) 3.67km -120 -9.25 867.7Mhz, SF9BW125, 4/5CR
51 2019-08-24 13:09:17 27.1875°C 56.125% 3.38V v1 52.1991 / 5.4122 4308 tonzttn 0.008km -89 13.5 868.3Mhz, SF9BW125, 4/5CR
51 2019-08-24 12:52:14 26.9375°C 54.5% 3.38V v1 52.1991 / 5.4122 4307 tonzttn 0.008km -74 9 867.5Mhz, SF9BW125, 4/5CR
Meetjestad #4 (De Koperhorst) 3.67km -114 -8.75 867.5Mhz, SF9BW125, 4/5CR
51 2019-08-24 12:35:11 26.8125°C 55.6875% 3.38V v1 52.1991 / 5.4122 4306 tonzttn 0.008km -93 12.5 868.1Mhz, SF9BW125, 4/5CR
Meetjestad #4 (De Koperhorst) 3.67km -120 -6.75 868.1Mhz, SF9BW125, 4/5CR
51 2019-08-24 12:18:07 26.5625°C 56.875% 3.38V v1 52.1991 / 5.4122 4305 tonzttn 0.008km -77 13.5 867.3Mhz, SF9BW125, 4/5CR
Meetjestad #4 (De Koperhorst) 3.67km -119 -10 867.3Mhz, SF9BW125, 4/5CR
eui-1dee1538af05a5a8 - -119 -13.5 867.3Mhz, SF9BW125, 4/5CR
51 2019-08-24 12:01:04 26.25°C 57.3125% 3.38V v1 52.1991 / 5.4122 4304 tonzttn 0.008km -79 9 868.5Mhz, SF9BW125, 4/5CR
Meetjestad #4 (De Koperhorst) 3.67km -103 -7.5 868.5Mhz, SF9BW125, 4/5CR
51 2019-08-24 11:44:01 25.8125°C 57.3125% 3.38V v1 52.1991 / 5.4122 4303 tonzttn 0.008km -79 12 867.1Mhz, SF9BW125, 4/5CR
Meetjestad #4 (De Koperhorst) 3.67km -120 -3.75 867.1Mhz, SF9BW125, 4/5CR
eui-1dee1538af05a5a8 - -120 -13.8 867.1Mhz, SF9BW125, 4/5CR
51 2019-08-24 11:26:59 25.375°C 58.4375% 3.38V v1 52.1991 / 5.4122 4302 tonzttn 0.008km -87 12.5 868.3Mhz, SF9BW125, 4/5CR
Meetjestad #6 (La Balise) 3.221km -119 -13.25 868.3Mhz, SF9BW125, 4/5CR
51 2019-08-24 11:09:56 24.5°C 60.5625% 3.38V v1 52.1991 / 5.4122 4301 tonzttn 0.008km -89 11.5 867.9Mhz, SF9BW125, 4/5CR
Meetjestad #4 (De Koperhorst) 3.67km -119 -4.75 867.9Mhz, SF9BW125, 4/5CR
51 2019-08-24 10:52:54 23.875°C 60.9375% 3.38V v1 52.1991 / 5.4122 4300 Meetjestad #4 (De Koperhorst) 3.67km -119 -1.5 868.1Mhz, SF9BW125, 4/5CR
51 2019-08-24 10:35:52 23.5°C 61.5625% 3.38V v1 52.1991 / 5.4122 4299 tonzttn 0.008km -82 11.5 867.7Mhz, SF9BW125, 4/5CR
Meetjestad #4 (De Koperhorst) 3.67km -119 -2.75 867.7Mhz, SF9BW125, 4/5CR
51 2019-08-24 10:18:51 23°C 63.9375% 3.38V v1 52.1991 / 5.4122 4298 tonzttn 0.008km -81 9.25 868.5Mhz, SF9BW125, 4/5CR
51 2019-08-24 10:01:49 22.0625°C 65.125% 3.38V v1 52.1991 / 5.4122 4297 tonzttn 0.008km -77 9 867.5Mhz, SF9BW125, 4/5CR
51 2019-08-24 09:44:48 20.9375°C 66.625% 3.38V v1 52.1991 / 5.4122 4296 tonzttn 0.008km -87 12.75 868.3Mhz, SF9BW125, 4/5CR
51 2019-08-24 09:27:48 20°C 68.875% 3.38V v1 52.1991 / 5.4122 4295 tonzttn 0.008km -73 11.75 867.3Mhz, SF9BW125, 4/5CR
Meetjestad #4 (De Koperhorst) 3.67km -120 -8 867.3Mhz, SF9BW125, 4/5CR
Meetjestad #6 (La Balise) 3.221km -120 -11.5 867.3Mhz, SF9BW125, 4/5CR
eui-1dee1538af05a5a8 - -119 -11.8 867.3Mhz, SF9BW125, 4/5CR
51 2019-08-24 09:10:47 19.125°C 73.0625% 3.38V v1 52.1991 / 5.4122 4294 tonzttn 0.008km -89 12.75 868.1Mhz, SF9BW125, 4/5CR
Meetjestad #4 (De Koperhorst) 3.67km -121 -7.5 868.1Mhz, SF9BW125, 4/5CR
51 2019-08-24 08:53:47 17.375°C 77.4375% 3.38V v1 52.1991 / 5.4122 4293 tonzttn 0.008km -75 12 867.1Mhz, SF9BW125, 4/5CR
Meetjestad #6 (La Balise) 3.221km -120 -11.5 867.1Mhz, SF9BW125, 4/5CR
51 2019-08-24 08:36:48 15.375°C 82.3125% 3.38V v1 52.1991 / 5.4122 4292 tonzttn 0.008km -91 8.75 868.5Mhz, SF9BW125, 4/5CR
Meetjestad #4 (De Koperhorst) 3.67km -117 -7.5 868.5Mhz, SF9BW125, 4/5CR
51 2019-08-24 08:19:49 14.625°C 83.5625% 3.38V v1 52.1991 / 5.4122 4291 tonzttn 0.008km -81 12.5 867.9Mhz, SF9BW125, 4/5CR
Meetjestad #4 (De Koperhorst) 3.67km -120 -3 867.9Mhz, SF9BW125, 4/5CR
51 2019-08-24 08:02:50 14.0625°C 86.5% 3.38V v1 52.1991 / 5.4122 4290 tonzttn 0.008km -85 11.75 868.3Mhz, SF9BW125, 4/5CR
Meetjestad #4 (De Koperhorst) 3.67km -113 -10 868.3Mhz, SF9BW125, 4/5CR
51 2019-08-24 07:45:51 13.6875°C 87.5625% 3.38V v1 52.1991 / 5.4122 4289 tonzttn 0.008km -77 12.5 867.7Mhz, SF9BW125, 4/5CR
Meetjestad #4 (De Koperhorst) 3.67km -118 -7.25 867.7Mhz, SF9BW125, 4/5CR
51 2019-08-24 07:28:53 13.5°C 90.4375% 3.38V v1 52.1991 / 5.4122 4288 tonzttn 0.008km -85 13 868.1Mhz, SF9BW125, 4/5CR
Meetjestad #4 (De Koperhorst) 3.67km -120 -8.5 868.1Mhz, SF9BW125, 4/5CR
51 2019-08-24 07:11:54 13.375°C 91.0625% 3.38V v1 52.1991 / 5.4122 4287 tonzttn 0.008km -75 9 867.5Mhz, SF9BW125, 4/5CR
Meetjestad #4 (De Koperhorst) 3.67km -123 -7 867.5Mhz, SF9BW125, 4/5CR
51 2019-08-24 06:54:55 13.4375°C 91.5625% 3.38V v1 52.1991 / 5.4122 4286 tonzttn 0.008km -89 8.75 868.5Mhz, SF9BW125, 4/5CR
Meetjestad #4 (De Koperhorst) 3.67km -115 -8 868.5Mhz, SF9BW125, 4/5CR
51 2019-08-24 06:37:57 13.4375°C 91.3125% 3.38V v1 52.1991 / 5.4122 4285 tonzttn 0.008km -72 11.75 867.3Mhz, SF9BW125, 4/5CR
Meetjestad #4 (De Koperhorst) 3.67km -118 -6.75 867.3Mhz, SF9BW125, 4/5CR
eui-1dee1538af05a5a8 - -120 -11.8 867.3Mhz, SF9BW125, 4/5CR
51 2019-08-24 06:20:58 13.625°C 90.375% 3.38V v1 52.1991 / 5.4122 4284 tonzttn 0.008km -84 12.75 868.3Mhz, SF9BW125, 4/5CR
Meetjestad #4 (De Koperhorst) 3.67km -120 -9 868.3Mhz, SF9BW125, 4/5CR
51 2019-08-24 06:03:59 13.625°C 88.75% 3.38V v1 52.1991 / 5.4122 4283 tonzttn 0.008km -75 12.5 867.1Mhz, SF9BW125, 4/5CR
Meetjestad #4 (De Koperhorst) 3.67km -120 -11.5 867.1Mhz, SF9BW125, 4/5CR
51 2019-08-24 05:47:01 13.6875°C 87.9375% 3.38V v1 52.1991 / 5.4122 4282 tonzttn 0.008km -79 12.25 868.1Mhz, SF9BW125, 4/5CR
Meetjestad #4 (De Koperhorst) 3.67km -121 -5.25 868.1Mhz, SF9BW125, 4/5CR
51 2019-08-24 05:30:02 13.875°C 88.0625% 3.38V v1 52.1991 / 5.4122 4281 tonzttn 0.008km -79 12 867.9Mhz, SF9BW125, 4/5CR
Meetjestad #4 (De Koperhorst) 3.67km -119 -8.25 867.9Mhz, SF9BW125, 4/5CR
51 2019-08-24 05:13:03 13.9375°C 88.4375% 3.38V v1 52.1991 / 5.4122 4280 tonzttn 0.008km -85 9 868.5Mhz, SF9BW125, 4/5CR
51 2019-08-24 04:56:04 14.0625°C 89.0625% 3.38V v1 52.1991 / 5.4122 4279 tonzttn 0.008km -71 9.75 867.7Mhz, SF9BW125, 4/5CR
Meetjestad #4 (De Koperhorst) 3.67km -119 -9.5 867.7Mhz, SF9BW125, 4/5CR
51 2019-08-24 04:39:05 14.1875°C 89.375% 3.38V v1 52.1991 / 5.4122 4278 tonzttn 0.008km -85 12 868.3Mhz, SF9BW125, 4/5CR
Meetjestad #4 (De Koperhorst) 3.67km -115 -7 868.3Mhz, SF9BW125, 4/5CR
51 2019-08-24 04:22:06 14.3125°C 87.4375% 3.38V v1 52.1991 / 5.4122 4277 tonzttn 0.008km -75 9.5 867.5Mhz, SF9BW125, 4/5CR
Meetjestad #4 (De Koperhorst) 3.67km -114 -8 867.5Mhz, SF9BW125, 4/5CR
51 2019-08-24 04:05:07 14.4375°C 85.4375% 3.38V v1 52.1991 / 5.4122 4276 tonzttn 0.008km -79 12 868.1Mhz, SF9BW125, 4/5CR
Meetjestad #4 (De Koperhorst) 3.67km -121 -8.25 868.1Mhz, SF9BW125, 4/5CR
51 2019-08-24 03:48:08 14.5625°C 84.9375% 3.38V v1 52.1991 / 5.4122 4275 tonzttn 0.008km -75 12.5 867.3Mhz, SF9BW125, 4/5CR
Meetjestad #4 (De Koperhorst) 3.67km -119 -6 867.3Mhz, SF9BW125, 4/5CR
eui-1dee1538af05a5a8 - -120 -12.2 867.3Mhz, SF9BW125, 4/5CR
51 2019-08-24 03:31:09 14.625°C 86.3125% 3.38V v1 52.1991 / 5.4122 4274 tonzttn 0.008km -87 8.75 868.5Mhz, SF9BW125, 4/5CR
51 2019-08-24 03:14:10 14.6875°C 88.4375% 3.38V v1 52.1991 / 5.4122 4273 tonzttn 0.008km -75 13.5 867.1Mhz, SF9BW125, 4/5CR
Meetjestad #4 (De Koperhorst) 3.67km -120 -6.5 867.1Mhz, SF9BW125, 4/5CR
51 2019-08-24 02:57:11 14.875°C 89.0625% 3.38V v1 52.1991 / 5.4122 4272 tonzttn 0.008km -87 12.5 868.3Mhz, SF9BW125, 4/5CR
51 2019-08-24 02:40:12 15.0625°C 86.75% 3.38V v1 52.1991 / 5.4122 4271 tonzttn 0.008km -81 12.75 867.9Mhz, SF9BW125, 4/5CR
Meetjestad #4 (De Koperhorst) 3.67km -120 -5.75 867.9Mhz, SF9BW125, 4/5CR
51 2019-08-24 02:23:13 15.375°C 86.125% 3.38V v1 52.1991 / 5.4122 4270 tonzttn 0.008km -81 13 868.1Mhz, SF9BW125, 4/5CR
Meetjestad #4 (De Koperhorst) 3.67km -118 -5 868.1Mhz, SF9BW125, 4/5CR
51 2019-08-24 02:06:13 15.75°C 84.8125% 3.38V v1 52.1991 / 5.4122 4269 tonzttn 0.008km -73 10.25 867.7Mhz, SF9BW125, 4/5CR
Meetjestad #4 (De Koperhorst) 3.67km -118 -8.5 867.7Mhz, SF9BW125, 4/5CR
51 2019-08-24 01:49:14 15.9375°C 79.4375% 3.38V v1 52.1991 / 5.4122 4268 tonzttn 0.008km -91 8.25 868.5Mhz, SF9BW125, 4/5CR
Meetjestad #4 (De Koperhorst) 3.67km -113 -8 868.5Mhz, SF9BW125, 4/5CR
51 2019-08-24 01:32:14 16.1875°C 79.5625% 3.38V v1 52.1991 / 5.4122 4267 tonzttn 0.008km -77 9.5 867.5Mhz, SF9BW125, 4/5CR
51 2019-08-24 01:15:15 16.5625°C 83.5625% 3.38V v1 52.1991 / 5.4122 4266 tonzttn 0.008km -89 13.25 868.3Mhz, SF9BW125, 4/5CR
Meetjestad #4 (De Koperhorst) 3.67km -119 -4.75 868.3Mhz, SF9BW125, 4/5CR
51 2019-08-24 00:58:15 17°C 84.4375% 3.38V v1 52.1991 / 5.4122 4265 tonzttn 0.008km -73 11.75 867.3Mhz, SF9BW125, 4/5CR
Meetjestad #4 (De Koperhorst) 3.67km -118 -12.25 867.3Mhz, SF9BW125, 4/5CR
eui-1dee1538af05a5a8 - -118 -14.2 867.3Mhz, SF9BW125, 4/5CR
51 2019-08-24 00:41:15 17.5°C 82.25% 3.38V v1 52.1991 / 5.4122 4264 tonzttn 0.008km -84 12.25 868.1Mhz, SF9BW125, 4/5CR
51 2019-08-24 00:24:15 17.625°C 79.3125% 3.38V v1 52.1991 / 5.4122 4263 tonzttn 0.008km -73 11.75 867.1Mhz, SF9BW125, 4/5CR
Meetjestad #4 (De Koperhorst) 3.67km -120 -2.5 867.1Mhz, SF9BW125, 4/5CR
51 2019-08-24 00:07:15 17.75°C 80% 3.38V v1 52.1991 / 5.4122 4262 tonzttn 0.008km -81 10 868.5Mhz, SF9BW125, 4/5CR
Meetjestad #4 (De Koperhorst) 3.67km -117 -11.5 868.5Mhz, SF9BW125, 4/5CR
Meetjestad #6 (La Balise) 3.221km -118 -13 868.5Mhz, SF9BW125, 4/5CR
51 2019-08-23 23:50:15 17.875°C 80.75% 3.38V v1 52.1991 / 5.4122 4261 tonzttn 0.008km -76 11 867.9Mhz, SF9BW125, 4/5CR
51 2019-08-23 23:33:15 18.0625°C 81.1875% 3.38V v1 52.1991 / 5.4122 4260 tonzttn 0.008km -79 12.25 868.3Mhz, SF9BW125, 4/5CR
51 2019-08-23 23:16:14 18.3125°C 83.3125% 3.38V v1 52.1991 / 5.4122 4259 tonzttn 0.008km -73 13 867.7Mhz, SF9BW125, 4/5CR
Meetjestad #4 (De Koperhorst) 3.67km -117 -11.5 867.7Mhz, SF9BW125, 4/5CR
51 2019-08-23 22:59:14 18.625°C 81.375% 3.38V v1 52.1991 / 5.4122 4258 tonzttn 0.008km -76 11.25 868.1Mhz, SF9BW125, 4/5CR
51 2019-08-23 22:42:14 18.75°C 81.8125% 3.38V v1 52.1991 / 5.4122 4257 tonzttn 0.008km -70 10 867.5Mhz, SF9BW125, 4/5CR
Meetjestad #4 (De Koperhorst) 3.67km -117 -3.5 867.5Mhz, SF9BW125, 4/5CR
51 2019-08-23 22:25:13 18.9375°C 83.1875% 3.38V v1 52.1991 / 5.4122 4256 tonzttn 0.008km -83 9.75 868.5Mhz, SF9BW125, 4/5CR
51 2019-08-23 22:08:13 19.1875°C 82.9375% 3.38V v1 52.1991 / 5.4122 4255 tonzttn 0.008km -73 13 867.3Mhz, SF9BW125, 4/5CR
Meetjestad #4 (De Koperhorst) 3.67km -120 -9 867.3Mhz, SF9BW125, 4/5CR
eui-1dee1538af05a5a8 - -118 -12.5 867.3Mhz, SF9BW125, 4/5CR
51 2019-08-23 21:51:12 19.6875°C 81.8125% 3.38V v1 52.1991 / 5.4122 4254 tonzttn 0.008km -79 12 868.3Mhz, SF9BW125, 4/5CR
51 2019-08-23 21:34:11 20°C 81.1875% 3.38V v1 52.1991 / 5.4122 4253 tonzttn 0.008km -70 11.5 867.1Mhz, SF9BW125, 4/5CR
Meetjestad #4 (De Koperhorst) 3.67km -120 -8.75 867.1Mhz, SF9BW125, 4/5CR
51 2019-08-23 21:17:10 20.6875°C 79.0625% 3.38V v1 52.1991 / 5.4122 4252 tonzttn 0.008km -83 13.5 868.1Mhz, SF9BW125, 4/5CR
Meetjestad #4 (De Koperhorst) 3.67km -121 -3.25 868.1Mhz, SF9BW125, 4/5CR
51 2019-08-23 21:00:09 21.3125°C 77.1875% 3.38V v1 52.1991 / 5.4122 4251 tonzttn 0.008km -77 12.25 867.9Mhz, SF9BW125, 4/5CR
Meetjestad #4 (De Koperhorst) 3.67km -119 -8.25 867.9Mhz, SF9BW125, 4/5CR
51 2019-08-23 20:43:07 21.9375°C 75.75% 3.38V v1 52.1991 / 5.4122 4250 tonzttn 0.008km -91 9.25 868.5Mhz, SF9BW125, 4/5CR
Meetjestad #4 (De Koperhorst) 3.67km -117 -10.25 868.5Mhz, SF9BW125, 4/5CR
Meetjestad #6 (La Balise) 3.221km -120 -12.25 868.5Mhz, SF9BW125, 4/5CR
51 2019-08-23 20:26:06 22.4375°C 75.0625% 3.38V v1 52.1991 / 5.4122 4249 tonzttn 0.008km -77 10.25 867.7Mhz, SF9BW125, 4/5CR
Meetjestad #4 (De Koperhorst) 3.67km -118 -8 867.7Mhz, SF9BW125, 4/5CR
51 2019-08-23 20:09:04 23°C 72.25% 3.38V v1 52.1991 / 5.4122 4248 tonzttn 0.008km -89 12.75 868.3Mhz, SF9BW125, 4/5CR
51 2019-08-23 19:52:02 23.4375°C 64% 3.38V v1 52.1991 / 5.4122 4247 tonzttn 0.008km -79 8.25 867.5Mhz, SF9BW125, 4/5CR
Meetjestad #4 (De Koperhorst) 3.67km -115 -9.25 867.5Mhz, SF9BW125, 4/5CR
51 2019-08-23 19:35:00 23.8125°C 58.3125% 3.38V v1 52.1991 / 5.4122 4246 tonzttn 0.008km -91 13 868.1Mhz, SF9BW125, 4/5CR
51 2019-08-23 19:00:55 24.1875°C 56.625% 3.38V v1 52.1991 / 5.4122 4244 tonzttn 0.008km -79 9.25 868.5Mhz, SF9BW125, 4/5CR
Meetjestad #6 (La Balise) 3.221km -119 -11.75 868.5Mhz, SF9BW125, 4/5CR
Meetjestad #4 (De Koperhorst) 3.67km -115 -14.75 868.5Mhz, SF9BW125, 4/5CR
51 2019-08-23 18:43:53 24.125°C 53.875% 3.38V v1 52.1991 / 5.4122 4243 tonzttn 0.008km -77 13.5 867.1Mhz, SF9BW125, 4/5CR
51 2019-08-23 18:26:50 24.25°C 54.6875% 3.38V v1 52.1991 / 5.4122 4242 tonzttn 0.008km -83 11.25 868.3Mhz, SF9BW125, 4/5CR
Meetjestad #4 (De Koperhorst) 3.67km -119 -6.5 868.3Mhz, SF9BW125, 4/5CR
51 2019-08-23 18:09:48 24.3125°C 49% 3.38V v1 52.1991 / 5.4122 4241 tonzttn 0.008km -91 12.25 867.9Mhz, SF9BW125, 4/5CR
Meetjestad #4 (De Koperhorst) 3.67km -121 -11 867.9Mhz, SF9BW125, 4/5CR
51 2019-08-23 17:52:46 24.25°C 48.1875% 3.38V v1 52.1991 / 5.4122 4240 tonzttn 0.008km -89 11 868.1Mhz, SF9BW125, 4/5CR
Meetjestad #4 (De Koperhorst) 3.67km -119 -3.25 868.1Mhz, SF9BW125, 4/5CR
51 2019-08-23 17:35:43 24.3125°C 47.25% 3.38V v1 52.1991 / 5.4122 4239 tonzttn 0.008km -87 13 867.7Mhz, SF9BW125, 4/5CR
51 2019-08-23 17:18:41 24.25°C 39.4375% 3.38V v1 52.1991 / 5.4122 4238 tonzttn 0.008km -77 9.5 868.5Mhz, SF9BW125, 4/5CR
Meetjestad #6 (La Balise) 3.221km -120 -12.5 868.5Mhz, SF9BW125, 4/5CR
51 2019-08-23 17:01:39 24.25°C 38.1875% 3.38V v1 52.1991 / 5.4122 4237 tonzttn 0.008km -81 8.5 867.5Mhz, SF9BW125, 4/5CR
Meetjestad #4 (De Koperhorst) 3.67km -119 -6.5 867.5Mhz, SF9BW125, 4/5CR
51 2019-08-23 16:44:36 24.3125°C 37.5625% 3.38V v1 52.1991 / 5.4122 4236 tonzttn 0.008km -77 12 868.3Mhz, SF9BW125, 4/5CR
51 2019-08-23 16:27:34 24.375°C 43.9375% 3.38V v1 52.1991 / 5.4122 4235 tonzttn 0.008km -75 12.75 867.3Mhz, SF9BW125, 4/5CR
Meetjestad #4 (De Koperhorst) 3.67km -119 -11 867.3Mhz, SF9BW125, 4/5CR
eui-1dee1538af05a5a8 - -120 -12.8 867.3Mhz, SF9BW125, 4/5CR
51 2019-08-23 16:10:32 24.3125°C 50.1875% 3.38V v1 52.1991 / 5.4122 4234 tonzttn 0.008km -93 12 868.1Mhz, SF9BW125, 4/5CR
51 2019-08-23 15:53:29 24.25°C 50.3125% 3.38V v1 52.1991 / 5.4122 4233 tonzttn 0.008km -74 11 867.1Mhz, SF9BW125, 4/5CR
Meetjestad #4 (De Koperhorst) 3.67km -120 -11.5 867.1Mhz, SF9BW125, 4/5CR
51 2019-08-23 15:36:27 24.3125°C 55.125% 3.38V v1 52.1991 / 5.4122 4232 tonzttn 0.008km -77 8.75 868.5Mhz, SF9BW125, 4/5CR
Meetjestad #4 (De Koperhorst) 3.67km -117 -6.5 868.5Mhz, SF9BW125, 4/5CR
51 2019-08-23 15:19:25 24.25°C 52.875% 3.38V v1 52.1991 / 5.4122 4231 tonzttn 0.008km -81 14 867.9Mhz, SF9BW125, 4/5CR
Meetjestad #4 (De Koperhorst) 3.67km -117 -3.25 867.9Mhz, SF9BW125, 4/5CR
51 2019-08-23 15:02:22 24.0625°C 54% 3.38V v1 52.1991 / 5.4122 4230 tonzttn 0.008km -85 11.75 868.3Mhz, SF9BW125, 4/5CR
51 2019-08-23 14:45:20 24.125°C 55.1875% 3.38V v1 52.1991 / 5.4122 4229 tonzttn 0.008km -79 12.5 867.7Mhz, SF9BW125, 4/5CR
51 2019-08-23 14:28:18 24.0625°C 56% 3.38V v1 52.1991 / 5.4122 4228 tonzttn 0.008km -91 11.25 868.1Mhz, SF9BW125, 4/5CR
Meetjestad #4 (De Koperhorst) 3.67km -120 -6 868.1Mhz, SF9BW125, 4/5CR
51 2019-08-23 14:11:16 24.25°C 58% 3.38V v1 52.1991 / 5.4122 4227 tonzttn 0.008km -77 9.25 867.5Mhz, SF9BW125, 4/5CR
51 2019-08-23 13:54:14 24.0625°C 55.6875% 3.38V v1 52.1991 / 5.4122 4226 tonzttn 0.008km -83 8.5 868.5Mhz, SF9BW125, 4/5CR
Meetjestad #4 (De Koperhorst) 3.67km -117 -5.75 868.5Mhz, SF9BW125, 4/5CR
51 2019-08-23 13:37:11 24°C 55% 3.38V v1 52.1991 / 5.4122 4225 tonzttn 0.008km -75 14.75 867.3Mhz, SF9BW125, 4/5CR
Meetjestad #4 (De Koperhorst) 3.67km -116 -7 867.3Mhz, SF9BW125, 4/5CR
51 2019-08-23 13:21:06 24°C 58.875% 3.38V v1 52.1991 / 5.4122 4224 tonzttn 0.008km -73 9.75 868.3Mhz, SF12BW125, 4/5CR
Meetjestad #4 (De Koperhorst) 3.67km -115 -8 868.3Mhz, SF12BW125, 4/5CR
Meetjestad #6 (La Balise) 3.221km -118 -15.25 868.3Mhz, SF12BW125, 4/5CR
51 2019-08-23 13:03:14 23.9375°C 58.125% 3.38V v1 52.1992 / 5.41229 4223 tonzttn 0.02km -72 11.75 867.1Mhz, SF9BW125, 4/5CR
Meetjestad #4 (De Koperhorst) 3.683km -119 -2.5 867.1Mhz, SF9BW125, 4/5CR
51 2019-08-23 12:46:12 23.6875°C 60.6875% 3.38V v1 52.1992 / 5.41229 4222 tonzttn 0.02km -83 12.5 868.1Mhz, SF9BW125, 4/5CR
Meetjestad #4 (De Koperhorst) 3.683km -120 -1 868.1Mhz, SF9BW125, 4/5CR
51 2019-08-23 12:29:10 23.75°C 56.5625% 3.38V v1 52.1992 / 5.41229 4221 tonzttn 0.02km -85 13 867.9Mhz, SF9BW125, 4/5CR
Meetjestad #4 (De Koperhorst) 3.683km -117 -2.75 867.9Mhz, SF9BW125, 4/5CR
Meetjestad #6 (La Balise) 3.224km -121 -13.5 867.9Mhz, SF9BW125, 4/5CR
51 2019-08-23 12:12:08 23.625°C 59.125% 3.38V v1 52.1992 / 5.41229 4220 tonzttn 0.02km -81 9.25 868.5Mhz, SF9BW125, 4/5CR
Meetjestad #4 (De Koperhorst) 3.683km -115 -12 868.5Mhz, SF9BW125, 4/5CR
Meetjestad #6 (La Balise) 3.224km -118 -13.5 868.5Mhz, SF9BW125, 4/5CR
51 2019-08-23 11:55:06 23.25°C 58.125% 3.38V v1 52.1992 / 5.41229 4219 tonzttn 0.02km -81 12.5 867.7Mhz, SF9BW125, 4/5CR
Meetjestad #4 (De Koperhorst) 3.683km -120 -6.75 867.7Mhz, SF9BW125, 4/5CR
51 2019-08-23 11:38:05 23.25°C 58.5625% 3.38V v1 52.1992 / 5.41229 4218 tonzttn 0.02km -77 11.5 868.3Mhz, SF9BW125, 4/5CR
51 2019-08-23 11:21:03 22.875°C 58.1875% 3.38V v1 52.1992 / 5.41229 4217 tonzttn 0.02km -75 9.5 867.5Mhz, SF9BW125, 4/5CR
Meetjestad #4 (De Koperhorst) 3.683km -117 -3.75 867.5Mhz, SF9BW125, 4/5CR
51 2019-08-23 11:04:01 22.3125°C 57.375% 3.38V v1 52.1992 / 5.41229 4216 tonzttn 0.02km -83 14 868.1Mhz, SF9BW125, 4/5CR
51 2019-08-23 10:47:00 22.125°C 58.1875% 3.38V v1 52.1992 / 5.41229 4215 tonzttn 0.02km -73 12.5 867.3Mhz, SF9BW125, 4/5CR
Meetjestad #4 (De Koperhorst) 3.683km -120 -10.75 867.3Mhz, SF9BW125, 4/5CR
eui-1dee1538af05a5a8 - -119 -12 867.3Mhz, SF9BW125, 4/5CR
51 2019-08-23 10:29:58 21.5°C 59.75% 3.38V v1 52.1992 / 5.41229 4214 tonzttn 0.02km -75 9.25 868.5Mhz, SF9BW125, 4/5CR
Meetjestad #4 (De Koperhorst) 3.683km -113 -6.5 868.5Mhz, SF9BW125, 4/5CR
51 2019-08-23 10:12:57 20.875°C 62.5% 3.38V v1 52.1992 / 5.41229 4213 tonzttn 0.02km -81 13.25 867.1Mhz, SF9BW125, 4/5CR
Meetjestad #4 (De Koperhorst) 3.683km -120 -5 867.1Mhz, SF9BW125, 4/5CR
51 2019-08-23 09:55:57 20.4375°C 63.8125% 3.38V v1 52.1992 / 5.41229 4212 tonzttn 0.02km -83 11 868.3Mhz, SF9BW125, 4/5CR
Meetjestad #4 (De Koperhorst) 3.683km -105 -4.75 868.3Mhz, SF9BW125, 4/5CR
51 2019-08-23 09:38:56 19.3125°C 68.1875% 3.38V v1 52.1992 / 5.41229 4211 tonzttn 0.02km -89 13 867.9Mhz, SF9BW125, 4/5CR
Meetjestad #4 (De Koperhorst) 3.683km -120 -1.75 867.9Mhz, SF9BW125, 4/5CR
51 2019-08-23 09:21:56 18.375°C 76% 3.38V v1 52.1992 / 5.41229 4210 tonzttn 0.02km -81 13.25 868.1Mhz, SF9BW125, 4/5CR
Meetjestad #4 (De Koperhorst) 3.683km -119 -2.25 868.1Mhz, SF9BW125, 4/5CR
51 2019-08-23 09:04:57 16.75°C 82.5625% 3.38V v1 52.1992 / 5.41229 4209 tonzttn 0.02km -77 12.75 867.7Mhz, SF9BW125, 4/5CR
Meetjestad #4 (De Koperhorst) 3.683km -119 -3.5 867.7Mhz, SF9BW125, 4/5CR
51 2019-08-23 08:47:57 15.0625°C 89.375% 3.38V v1 52.1992 / 5.41229 4208 tonzttn 0.02km -81 9.5 868.5Mhz, SF9BW125, 4/5CR
Meetjestad #4 (De Koperhorst) 3.683km -114 -5.5 868.5Mhz, SF9BW125, 4/5CR
Meetjestad #6 (La Balise) 3.224km -118 -14.5 868.5Mhz, SF9BW125, 4/5CR
51 2019-08-23 08:30:58 13.9375°C 93.4375% 3.38V v1 52.1992 / 5.41229 4207 tonzttn 0.02km -75 8 867.5Mhz, SF9BW125, 4/5CR
Meetjestad #4 (De Koperhorst) 3.683km -114 -7.75 867.5Mhz, SF9BW125, 4/5CR
51 2019-08-23 08:14:00 13.25°C 94.0625% 3.38V v1 52.1992 / 5.41229 4206 tonzttn 0.02km -81 13.75 868.3Mhz, SF9BW125, 4/5CR
51 2019-08-23 07:57:01 12.6875°C 93.6875% 3.38V v1 52.1992 / 5.41229 4205 tonzttn 0.02km -72 13.5 867.3Mhz, SF9BW125, 4/5CR
Meetjestad #4 (De Koperhorst) 3.683km -117 -3 867.3Mhz, SF9BW125, 4/5CR
eui-1dee1538af05a5a8 - -118 -12.8 867.3Mhz, SF9BW125, 4/5CR
51 2019-08-23 07:40:03 12.375°C 93.6875% 3.38V v1 52.1992 / 5.41229 4204 tonzttn 0.02km -82 12.5 868.1Mhz, SF9BW125, 4/5CR
Meetjestad #4 (De Koperhorst) 3.683km -119 -0.5 868.1Mhz, SF9BW125, 4/5CR
51 2019-08-23 07:23:05 12.1875°C 93.75% 3.38V v1 52.1992 / 5.41229 4203 tonzttn 0.02km -77 13.25 867.1Mhz, SF9BW125, 4/5CR
Meetjestad #4 (De Koperhorst) 3.683km -118 -3.25 867.1Mhz, SF9BW125, 4/5CR
eui-1dee1538af05a5a8 - -121 -13.5 867.1Mhz, SF9BW125, 4/5CR
51 2019-08-23 07:06:07 11.8125°C 93.1875% 3.38V v1 52.1992 / 5.41229 4202 tonzttn 0.02km -90 8 868.5Mhz, SF9BW125, 4/5CR
Meetjestad #4 (De Koperhorst) 3.683km -115 -7.5 868.5Mhz, SF9BW125, 4/5CR
51 2019-08-23 06:49:08 11.75°C 93% 3.38V v1 52.1992 / 5.41229 4201 tonzttn 0.02km -89 10.75 867.9Mhz, SF9BW125, 4/5CR
Meetjestad #4 (De Koperhorst) 3.683km -119 -2.5 867.9Mhz, SF9BW125, 4/5CR
51 2019-08-23 06:32:10 11.75°C 92.5625% 3.38V v1 52.1992 / 5.41229 4200 tonzttn 0.02km -85 11 868.3Mhz, SF9BW125, 4/5CR
51 2019-08-23 06:15:12 11.8125°C 92.6875% 3.38V v1 52.1992 / 5.41229 4199 tonzttn 0.02km -79 13 867.7Mhz, SF9BW125, 4/5CR
Meetjestad #4 (De Koperhorst) 3.683km -119 -2 867.7Mhz, SF9BW125, 4/5CR
eui-1dee1538af05a5a8 - -120 -13.8 867.7Mhz, SF9BW125, 4/5CR
51 2019-08-23 05:58:14 11.9375°C 92.3125% 3.38V v1 52.1992 / 5.41229 4198 tonzttn 0.02km -99 10.5 868.1Mhz, SF9BW125, 4/5CR
51 2019-08-23 05:41:16 12.0625°C 92.3125% 3.38V v1 52.1992 / 5.41229 4197 tonzttn 0.02km -66 8.5 867.5Mhz, SF9BW125, 4/5CR
Meetjestad #4 (De Koperhorst) 3.683km -114 -4.25 867.5Mhz, SF9BW125, 4/5CR
51 2019-08-23 05:24:17 12.1875°C 92.6875% 3.38V v1 52.1992 / 5.41229 4196 tonzttn 0.02km -81 10 868.5Mhz, SF9BW125, 4/5CR
51 2019-08-23 05:07:19 12.3125°C 92.8125% 3.38V v1 52.1992 / 5.41229 4195 tonzttn 0.02km -72 12 867.3Mhz, SF9BW125, 4/5CR
Meetjestad #4 (De Koperhorst) 3.683km -119 -3.75 867.3Mhz, SF9BW125, 4/5CR
eui-1dee1538af05a5a8 - -118 -10.5 867.3Mhz, SF9BW125, 4/5CR
51 2019-08-23 04:50:21 12.25°C 91.9375% 3.38V v1 52.1992 / 5.41229 4194 tonzttn 0.02km -89 13 868.3Mhz, SF9BW125, 4/5CR
Meetjestad #4 (De Koperhorst) 3.683km -117 -7 868.3Mhz, SF9BW125, 4/5CR
51 2019-08-23 04:33:22 12.3125°C 91% 3.38V v1 52.1992 / 5.41229 4193 tonzttn 0.02km -77 13.75 867.1Mhz, SF9BW125, 4/5CR
Meetjestad #4 (De Koperhorst) 3.683km -120 -3.75 867.1Mhz, SF9BW125, 4/5CR
eui-1dee1538af05a5a8 - -120 -12.8 867.1Mhz, SF9BW125, 4/5CR
51 2019-08-23 04:16:24 12.375°C 90.9375% 3.38V v1 52.1992 / 5.41229 4192 tonzttn 0.02km -99 10.25 868.1Mhz, SF9BW125, 4/5CR
Meetjestad #4 (De Koperhorst) 3.683km -118 0.25 868.1Mhz, SF9BW125, 4/5CR
51 2019-08-23 03:59:26 12.5°C 91.125% 3.38V v1 52.1992 / 5.41229 4191 tonzttn 0.02km -91 10 867.9Mhz, SF9BW125, 4/5CR
Meetjestad #4 (De Koperhorst) 3.683km -117 0.25 867.9Mhz, SF9BW125, 4/5CR
51 2019-08-23 03:42:27 12.75°C 90.6875% 3.38V v1 52.1992 / 5.41229 4190 tonzttn 0.02km -83 9.75 868.5Mhz, SF9BW125, 4/5CR
Meetjestad #4 (De Koperhorst) 3.683km -112 -6 868.5Mhz, SF9BW125, 4/5CR
51 2019-08-23 03:25:29 12.875°C 90.1875% 3.38V v1 52.1992 / 5.41229 4189 tonzttn 0.02km -83 13.25 867.7Mhz, SF9BW125, 4/5CR
Meetjestad #4 (De Koperhorst) 3.683km -119 -1.25 867.7Mhz, SF9BW125, 4/5CR
51 2019-08-23 03:08:30 12.9375°C 90.3125% 3.38V v1 52.1992 / 5.41229 4188 tonzttn 0.02km -85 13 868.3Mhz, SF9BW125, 4/5CR
Meetjestad #4 (De Koperhorst) 3.683km -114 -7.25 868.3Mhz, SF9BW125, 4/5CR
Meetjestad #6 (La Balise) 3.224km -118 -13.75 868.3Mhz, SF9BW125, 4/5CR
51 2019-08-23 02:51:32 13.125°C 89.6875% 3.38V v1 52.1992 / 5.41229 4187 tonzttn 0.02km -77 9 867.5Mhz, SF9BW125, 4/5CR
Meetjestad #4 (De Koperhorst) 3.683km -118 -3.25 867.5Mhz, SF9BW125, 4/5CR
51 2019-08-23 02:34:33 13.3125°C 90.5% 3.38V v1 52.1992 / 5.41229 4186 tonzttn 0.02km -89 13.75 868.1Mhz, SF9BW125, 4/5CR
Meetjestad #4 (De Koperhorst) 3.683km -120 0 868.1Mhz, SF9BW125, 4/5CR
51 2019-08-23 02:17:34 13.5°C 89.75% 3.38V v1 52.1992 / 5.41229 4185 tonzttn 0.02km -72 11.25 867.3Mhz, SF9BW125, 4/5CR
Meetjestad #4 (De Koperhorst) 3.683km -120 -3.5 867.3Mhz, SF9BW125, 4/5CR
51 2019-08-23 02:00:36 13.6875°C 89.5% 3.38V v1 52.1992 / 5.41229 4184 tonzttn 0.02km -79 9.5 868.5Mhz, SF9BW125, 4/5CR
Meetjestad #4 (De Koperhorst) 3.683km -114 -3.25 868.5Mhz, SF9BW125, 4/5CR
51 2019-08-23 01:43:37 13.875°C 89.625% 3.38V v1 52.1992 / 5.41229 4183 tonzttn 0.02km -79 14 867.1Mhz, SF9BW125, 4/5CR
Meetjestad #4 (De Koperhorst) 3.683km -120 -3.75 867.1Mhz, SF9BW125, 4/5CR
51 2019-08-23 01:26:38 13.9375°C 87.625% 3.38V v1 52.1992 / 5.41229 4182 tonzttn 0.02km -83 13 868.3Mhz, SF9BW125, 4/5CR
Meetjestad #4 (De Koperhorst) 3.683km -113 -3.25 868.3Mhz, SF9BW125, 4/5CR
51 2019-08-23 01:09:39 14.125°C 87.6875% 3.38V v1 52.1992 / 5.41229 4181 tonzttn 0.02km -93 11.75 867.9Mhz, SF9BW125, 4/5CR
Meetjestad #4 (De Koperhorst) 3.683km -116 0.5 867.9Mhz, SF9BW125, 4/5CR
Meetjestad #6 (La Balise) 3.224km -119 -14.5 867.9Mhz, SF9BW125, 4/5CR
51 2019-08-23 00:52:41 14.25°C 87.8125% 3.38V v1 52.1992 / 5.41229 4180 tonzttn 0.02km -87 12.75 868.1Mhz, SF9BW125, 4/5CR
Meetjestad #4 (De Koperhorst) 3.683km -117 0 868.1Mhz, SF9BW125, 4/5CR
51 2019-08-23 00:35:42 14.375°C 87.0625% 3.38V v1 52.1992 / 5.41229 4179 tonzttn 0.02km -79 11.5 867.7Mhz, SF9BW125, 4/5CR
Meetjestad #4 (De Koperhorst) 3.683km -119 -2 867.7Mhz, SF9BW125, 4/5CR
51 2019-08-23 00:18:42 14.5625°C 87.3125% 3.38V v1 52.1992 / 5.41229 4178 tonzttn 0.02km -81 9 868.5Mhz, SF9BW125, 4/5CR
Meetjestad #4 (De Koperhorst) 3.683km -119 -3.5 868.5Mhz, SF9BW125, 4/5CR
51 2019-08-23 00:01:43 14.75°C 86.6875% 3.38V v1 52.1992 / 5.41229 4177 tonzttn 0.02km -75 9.5 867.5Mhz, SF9BW125, 4/5CR
Meetjestad #4 (De Koperhorst) 3.683km -113 -9.5 867.5Mhz, SF9BW125, 4/5CR
51 2019-08-22 23:44:44 14.9375°C 86.25% 3.38V v1 52.1992 / 5.41229 4176 tonzttn 0.02km -77 11.75 868.3Mhz, SF9BW125, 4/5CR
Meetjestad #4 (De Koperhorst) 3.683km -112 -6.75 868.3Mhz, SF9BW125, 4/5CR
51 2019-08-22 23:27:45 15.125°C 85.0625% 3.38V v1 52.1992 / 5.41229 4175 tonzttn 0.02km -77 13 867.3Mhz, SF9BW125, 4/5CR
Meetjestad #4 (De Koperhorst) 3.683km -118 -2.75 867.3Mhz, SF9BW125, 4/5CR
eui-1dee1538af05a5a8 - -118 -11.2 867.3Mhz, SF9BW125, 4/5CR
51 2019-08-22 23:10:46 15.375°C 84.5625% 3.38V v1 52.1992 / 5.41229 4174 tonzttn 0.02km -87 13.5 868.1Mhz, SF9BW125, 4/5CR
51 2019-08-22 22:53:47 15.75°C 82.8125% 3.38V v1 52.1992 / 5.41229 4173 tonzttn 0.02km -75 13 867.1Mhz, SF9BW125, 4/5CR
Meetjestad #4 (De Koperhorst) 3.683km -118 -0.5 867.1Mhz, SF9BW125, 4/5CR
eui-1dee1538af05a5a8 - -120 -13 867.1Mhz, SF9BW125, 4/5CR
51 2019-08-22 22:36:47 15.875°C 83.375% 3.38V v1 52.1992 / 5.41229 4172 tonzttn 0.02km -81 9.5 868.5Mhz, SF9BW125, 4/5CR
Meetjestad #4 (De Koperhorst) 3.683km -117 -4.75 868.5Mhz, SF9BW125, 4/5CR
51 2019-08-22 22:19:48 16.25°C 81.1875% 3.38V v1 52.1992 / 5.41229 4171 tonzttn 0.02km -85 12 867.9Mhz, SF9BW125, 4/5CR
Meetjestad #4 (De Koperhorst) 3.683km -120 0.25 867.9Mhz, SF9BW125, 4/5CR
51 2019-08-22 22:02:48 16.6875°C 83.0625% 3.38V v1 52.1992 / 5.41229 4170 tonzttn 0.02km -83 10.75 868.3Mhz, SF9BW125, 4/5CR
Meetjestad #4 (De Koperhorst) 3.683km -115 -1.5 868.3Mhz, SF9BW125, 4/5CR
51 2019-08-22 21:45:48 17.125°C 82.8125% 3.38V v1 52.1992 / 5.41229 4169 tonzttn 0.02km -79 12.75 867.7Mhz, SF9BW125, 4/5CR
51 2019-08-22 21:28:48 17.6875°C 83.1875% 3.38V v1 52.1992 / 5.41229 4168 tonzttn 0.02km -89 13.25 868.1Mhz, SF9BW125, 4/5CR
Meetjestad #4 (De Koperhorst) 3.683km -118 0.75 868.1Mhz, SF9BW125, 4/5CR
51 2019-08-22 21:11:48 18.4375°C 73.875% 3.38V v1 52.1992 / 5.41229 4167 tonzttn 0.02km -79 9.25 867.5Mhz, SF9BW125, 4/5CR
Meetjestad #4 (De Koperhorst) 3.683km -114 -5.75 867.5Mhz, SF9BW125, 4/5CR
51 2019-08-22 20:54:48 19°C 74.125% 3.38V v1 52.1992 / 5.41229 4166 tonzttn 0.02km -83 8.75 868.5Mhz, SF9BW125, 4/5CR
51 2019-08-22 20:37:47 19.5625°C 74.875% 3.38V v1 52.1992 / 5.41229 4165 tonzttn 0.02km -77 13 867.3Mhz, SF9BW125, 4/5CR
Meetjestad #4 (De Koperhorst) 3.683km -113 1.25 867.3Mhz, SF9BW125, 4/5CR
51 2019-08-22 20:20:46 20.25°C 73.8125% 3.38V v1 52.1992 / 5.41229 4164 tonzttn 0.02km -93 12 868.3Mhz, SF9BW125, 4/5CR
Meetjestad #4 (De Koperhorst) 3.683km -119 -10.5 868.3Mhz, SF9BW125, 4/5CR
51 2019-08-22 20:03:45 20.75°C 70.0625% 3.38V v1 52.1992 / 5.41229 4163 tonzttn 0.02km -79 13.25 867.1Mhz, SF9BW125, 4/5CR
Meetjestad #4 (De Koperhorst) 3.683km -118 -3.5 867.1Mhz, SF9BW125, 4/5CR
51 2019-08-22 19:46:44 21.375°C 66.4375% 3.38V v1 52.1992 / 5.41229 4162 tonzttn 0.02km -89 13.75 868.1Mhz, SF9BW125, 4/5CR
Meetjestad #4 (De Koperhorst) 3.683km -117 -1.75 868.1Mhz, SF9BW125, 4/5CR
Meetjestad #6 (La Balise) 3.224km -120 -13.75 868.1Mhz, SF9BW125, 4/5CR
51 2019-08-22 19:29:42 21.8125°C 65.0625% 3.38V v1 52.1992 / 5.41229 4161 tonzttn 0.02km -84 11.75 867.9Mhz, SF9BW125, 4/5CR
Meetjestad #4 (De Koperhorst) 3.683km -120 -3.75 867.9Mhz, SF9BW125, 4/5CR
51 2019-08-22 19:12:41 22.3125°C 64.875% 3.38V v1 52.1992 / 5.41229 4160 tonzttn 0.02km -77 8.5 868.5Mhz, SF9BW125, 4/5CR
51 2019-08-22 18:55:39 22.6875°C 63.5% 3.38V v1 52.1992 / 5.41229 4159 tonzttn 0.02km -83 13.5 867.7Mhz, SF9BW125, 4/5CR
Meetjestad #4 (De Koperhorst) 3.683km -120 -8.75 867.7Mhz, SF9BW125, 4/5CR
eui-1dee1538af05a5a8 - -120 -13.2 867.7Mhz, SF9BW125, 4/5CR
51 2019-08-22 18:38:38 22.9375°C 62.25% 3.38V v1 52.1992 / 5.41229 4158 tonzttn 0.02km -81 12 868.3Mhz, SF9BW125, 4/5CR
Meetjestad #4 (De Koperhorst) 3.683km -117 -8.25 868.3Mhz, SF9BW125, 4/5CR
51 2019-08-22 18:21:36 23.3125°C 60.8125% 3.38V v1 52.1992 / 5.41229 4157 tonzttn 0.02km -79 9.75 867.5Mhz, SF9BW125, 4/5CR
Meetjestad #4 (De Koperhorst) 3.683km -115 -5.75 867.5Mhz, SF9BW125, 4/5CR
51 2019-08-22 18:04:34 23.4375°C 60.125% 3.38V v1 52.1992 / 5.41229 4156 tonzttn 0.02km -83 12.5 868.1Mhz, SF9BW125, 4/5CR
Meetjestad #4 (De Koperhorst) 3.683km -121 -9.5 868.1Mhz, SF9BW125, 4/5CR
eui-1dee1538af05a5a8 - -120 -13.5 868.1Mhz, SF9BW125, 4/5CR
51 2019-08-22 17:47:32 23.625°C 60.9375% 3.38V v1 52.1992 / 5.41229 4155 tonzttn 0.02km -79 12.75 867.3Mhz, SF9BW125, 4/5CR
Meetjestad #4 (De Koperhorst) 3.683km -117 -0.25 867.3Mhz, SF9BW125, 4/5CR
eui-1dee1538af05a5a8 - -120 -12 867.3Mhz, SF9BW125, 4/5CR
Meetjestad #6 (La Balise) 3.224km -119 -12.75 867.3Mhz, SF9BW125, 4/5CR
51 2019-08-22 17:30:30 23.6875°C 60.125% 3.38V v1 52.1992 / 5.41229 4154 tonzttn 0.02km -78 9 868.5Mhz, SF9BW125, 4/5CR
Meetjestad #4 (De Koperhorst) 3.683km -114 -9.75 868.5Mhz, SF9BW125, 4/5CR
51 2019-08-22 17:13:28 23.6875°C 58.8125% 3.38V v1 52.1992 / 5.41229 4153 tonzttn 0.02km -83 13 867.1Mhz, SF9BW125, 4/5CR
Meetjestad #4 (De Koperhorst) 3.683km -120 -6.75 867.1Mhz, SF9BW125, 4/5CR
Meetjestad #6 (La Balise) 3.224km -121 -11.25 867.1Mhz, SF9BW125, 4/5CR
51 2019-08-22 16:56:26 23.625°C 61.375% 3.38V v1 52.1992 / 5.41229 4152 tonzttn 0.02km -73 11.5 868.3Mhz, SF9BW125, 4/5CR
51 2019-08-22 16:39:24 23.75°C 60.0625% 3.38V v1 52.1992 / 5.41229 4151 tonzttn 0.02km -91 13.75 867.9Mhz, SF9BW125, 4/5CR
Meetjestad #4 (De Koperhorst) 3.683km -120 -4 867.9Mhz, SF9BW125, 4/5CR
51 2019-08-22 16:22:22 23.8125°C 61.25% 3.38V v1 52.1992 / 5.41229 4150 tonzttn 0.02km -83 12.75 868.1Mhz, SF9BW125, 4/5CR
Meetjestad #4 (De Koperhorst) 3.683km -117 -8.5 868.1Mhz, SF9BW125, 4/5CR
51 2019-08-22 16:05:20 24.0625°C 59.0625% 3.38V v1 52.1992 / 5.41229 4149 tonzttn 0.02km -82 11.5 867.7Mhz, SF9BW125, 4/5CR
Meetjestad #4 (De Koperhorst) 3.683km -117 -2.75 867.7Mhz, SF9BW125, 4/5CR
51 2019-08-22 15:48:18 24°C 59.3125% 3.38V v1 52.1992 / 5.41229 4148 tonzttn 0.02km -72 8 868.5Mhz, SF9BW125, 4/5CR
51 2019-08-22 15:31:15 24°C 59.125% 3.38V v1 52.1992 / 5.41229 4147 tonzttn 0.02km -94 9 867.5Mhz, SF9BW125, 4/5CR
Meetjestad #4 (De Koperhorst) 3.683km -117 -9.25 867.5Mhz, SF9BW125, 4/5CR
51 2019-08-22 15:14:13 24.125°C 59.3125% 3.38V v1 52.1992 / 5.41229 4146 tonzttn 0.02km -70 8.25 868.3Mhz, SF9BW125, 4/5CR
51 2019-08-22 14:57:11 24.0625°C 59.0625% 3.38V v1 52.1992 / 5.41229 4145 tonzttn 0.02km -90 11.75 867.3Mhz, SF9BW125, 4/5CR
Meetjestad #4 (De Koperhorst) 3.683km -119 -5.5 867.3Mhz, SF9BW125, 4/5CR
51 2019-08-22 14:40:09 24.1875°C 57.9375% 3.38V v1 52.1992 / 5.41229 4144 tonzttn 0.02km -81 12.25 868.1Mhz, SF9BW125, 4/5CR
Meetjestad #4 (De Koperhorst) 3.683km -118 -5.25 868.1Mhz, SF9BW125, 4/5CR
51 2019-08-22 14:23:07 24.3125°C 57.1875% 3.38V v1 52.1992 / 5.41229 4143 tonzttn 0.02km -83 13 867.1Mhz, SF9BW125, 4/5CR
Meetjestad #4 (De Koperhorst) 3.683km -120 -8.25 867.1Mhz, SF9BW125, 4/5CR
eui-1dee1538af05a5a8 - -120 -12.8 867.1Mhz, SF9BW125, 4/5CR
51 2019-08-22 14:06:07 24.125°C 58.5625% 3.38V v1 52.1992 / 5.41229 4142 tonzttn 0.02km -73 9.25 868.5Mhz, SF9BW125, 4/5CR
Meetjestad #4 (De Koperhorst) 3.683km -115 -9.75 868.5Mhz, SF9BW125, 4/5CR
51 2019-08-22 13:49:02 24.125°C 56.9375% 3.38V v1 52.1992 / 5.41229 4141 tonzttn 0.02km -85 13.75 867.9Mhz, SF9BW125, 4/5CR
Meetjestad #4 (De Koperhorst) 3.683km -119 -4 867.9Mhz, SF9BW125, 4/5CR
51 2019-08-22 13:32:00 24°C 55.4375% 3.38V v1 52.1992 / 5.41229 4140 tonzttn 0.02km -77 10.25 868.3Mhz, SF9BW125, 4/5CR
Meetjestad #4 (De Koperhorst) 3.683km -114 -12.75 868.3Mhz, SF9BW125, 4/5CR
51 2019-08-22 13:14:58 24.0625°C 57.5625% 3.38V v1 52.1992 / 5.41229 4139 tonzttn 0.02km -84 11.75 867.7Mhz, SF9BW125, 4/5CR
Meetjestad #4 (De Koperhorst) 3.683km -117 1.5 867.7Mhz, SF9BW125, 4/5CR
51 2019-08-22 12:57:56 23.8125°C 58.0625% 3.38V v1 52.1992 / 5.41229 4138 tonzttn 0.02km -85 14.25 868.1Mhz, SF9BW125, 4/5CR
Meetjestad #4 (De Koperhorst) 3.683km -120 -6.5 868.1Mhz, SF9BW125, 4/5CR
51 2019-08-22 12:40:54 23.75°C 58% 3.38V v1 52.1992 / 5.41229 4137 tonzttn 0.02km -93 8.75 867.5Mhz, SF9BW125, 4/5CR
51 2019-08-22 12:23:52 24°C 56.3125% 3.38V v1 52.1992 / 5.41229 4136 tonzttn 0.02km -76 8.5 868.5Mhz, SF9BW125, 4/5CR
51 2019-08-22 12:06:50 23.875°C 58.25% 3.38V v1 52.1992 / 5.41229 4135 tonzttn 0.02km -81 12.25 867.3Mhz, SF9BW125, 4/5CR
Meetjestad #4 (De Koperhorst) 3.683km -111 -10.25 867.3Mhz, SF9BW125, 4/5CR
51 2019-08-22 11:49:48 23.4375°C 58.8125% 3.38V v1 52.1992 / 5.41229 4134 tonzttn 0.02km -76 9.75 868.3Mhz, SF9BW125, 4/5CR
51 2019-08-22 11:32:46 23.25°C 58.8125% 3.38V v1 52.1992 / 5.41229 4133 tonzttn 0.02km -85 12 867.1Mhz, SF9BW125, 4/5CR

Message count: 200

Node count: 1

Messages per node

Number of messages in list aboveNodes
20051

Statistics per gateway

GatewayNumber of messagesNumber of nodesNodes
tonzttn (filter)199151 (0.02km)
Meetjestad #4 (De Koperhorst) (filter)147151 (3.683km)
eui-1dee1538af05a5a8 (filter)23151
Meetjestad #6 (La Balise) (filter)19151 (3.224km)
Meetjestad #1 (De WAR) (filter)1151 (4.699km)

Filter by dataset